createdAt,value
2018-09-28T00:02:45.032Z,101318.00
2018-09-28T00:07:49.100Z,101284.00
2018-09-28T00:12:53.166Z,101243.00
2018-09-28T00:17:57.207Z,101210.00
2018-09-28T00:23:01.326Z,101154.00
2018-09-28T00:28:05.368Z,101114.00
2018-09-28T00:33:09.425Z,101079.00
2018-09-28T00:38:13.479Z,101071.00
2018-09-28T00:43:17.526Z,101055.00
2018-09-28T00:48:21.654Z,101038.00
2018-09-28T00:53:25.693Z,101025.00
2018-09-28T00:58:29.500Z,101024.00
2018-09-28T01:03:33.545Z,101007.00
2018-09-28T01:08:38.108Z,101008.00
2018-09-28T01:13:41.949Z,100941.00
2018-09-28T01:18:46.030Z,100895.00
2018-09-28T01:23:49.851Z,100901.00
2018-09-28T01:28:54.934Z,100910.00
2018-09-28T01:33:59.106Z,100894.00
2018-09-28T01:39:02.969Z,100833.00
2018-09-28T01:44:07.762Z,100728.00
2018-09-28T01:49:11.597Z,100709.00
2018-09-28T01:54:15.664Z,100695.00
2018-09-28T01:59:19.500Z,100705.00
2018-09-28T02:04:23.328Z,100721.00
2018-09-28T02:09:27.347Z,100738.00
2018-09-28T02:14:31.377Z,100752.00
2018-09-28T02:19:35.422Z,100767.00
2018-09-28T02:24:39.463Z,100785.00
2018-09-28T02:29:43.279Z,100781.00
2018-09-28T02:34:47.106Z,100772.00
2018-09-28T02:39:51.159Z,100752.00
2018-09-28T02:44:55.215Z,100753.00
2018-09-28T02:49:59.020Z,100738.00
2018-09-28T02:55:02.817Z,100723.00
2018-09-28T03:00:06.655Z,100718.00
2018-09-28T03:05:10.699Z,100709.00
2018-09-28T03:10:14.764Z,100672.00
2018-09-28T03:15:19.458Z,100666.00
2018-09-28T03:20:23.815Z,100671.00
2018-09-28T03:25:27.840Z,100630.00
2018-09-28T03:30:31.911Z,100598.00
2018-09-28T03:35:36.079Z,100592.00
2018-09-28T03:40:40.360Z,100596.00
2018-09-28T03:45:44.102Z,100600.00
2018-09-28T03:50:48.176Z,100580.00
2018-09-28T03:55:52.267Z,100567.00
2018-09-28T04:00:56.337Z,100567.00
2018-09-28T04:06:00.394Z,100558.00
2018-09-28T04:11:04.220Z,100550.00
2018-09-28T04:16:08.580Z,100525.00
2018-09-28T04:21:12.641Z,100517.00
2018-09-28T04:26:16.462Z,100505.00
2018-09-28T04:31:20.294Z,100476.00
2018-09-28T04:36:24.385Z,100462.00
2018-09-28T04:41:28.198Z,100454.00
2018-09-28T04:46:32.391Z,100436.00
2018-09-28T04:51:36.205Z,100415.00
2018-09-28T04:56:40.262Z,100393.00
2018-09-28T05:01:44.320Z,100387.00
2018-09-28T05:06:48.138Z,100377.00
2018-09-28T05:11:52.558Z,100372.00
2018-09-28T05:16:56.399Z,100375.00
2018-09-28T05:22:00.444Z,100387.00
2018-09-28T05:27:04.503Z,100380.00
2018-09-28T05:32:08.646Z,100363.00
2018-09-28T05:37:12.785Z,100351.00
2018-09-28T05:42:16.781Z,100356.00
2018-09-28T05:47:20.616Z,100362.00
2018-09-28T05:52:24.774Z,100368.00
2018-09-28T05:57:28.607Z,100376.00
2018-09-28T06:02:37.720Z,100365.00
2018-09-28T06:07:41.545Z,100350.00
2018-09-28T06:12:45.590Z,100377.00
2018-09-28T06:17:49.664Z,100410.00
2018-09-28T06:22:53.989Z,100481.00
2018-09-28T06:27:57.974Z,100545.00
2018-09-28T06:33:02.045Z,100677.00
2018-09-28T06:38:06.025Z,100819.00
2018-09-28T06:43:10.167Z,100930.00
2018-09-28T06:48:14.285Z,101087.00
2018-09-28T06:53:18.371Z,101237.00
2018-09-28T06:58:22.980Z,101345.00
2018-09-28T07:03:26.813Z,101398.00
2018-09-28T07:08:30.881Z,101409.00
2018-09-28T07:13:34.964Z,101375.00
2018-09-28T07:18:39.083Z,101381.00
2018-09-28T07:23:43.221Z,101393.00
2018-09-28T07:28:46.985Z,101398.00
2018-09-28T07:33:51.126Z,101392.00
2018-09-28T07:38:55.217Z,101399.00
2018-09-28T07:44:00.374Z,101398.00
2018-09-28T07:49:04.217Z,101410.00
2018-09-28T07:54:08.477Z,101415.00
2018-09-28T07:59:12.551Z,101442.00
2018-09-28T08:04:16.626Z,101455.00
2018-09-28T08:09:20.690Z,101481.00
2018-09-28T08:14:25.688Z,101494.00
2018-09-28T08:19:29.754Z,101526.00
2018-09-28T08:24:33.907Z,101533.00
2018-09-28T08:29:38.950Z,101559.00
2018-09-28T08:34:42.841Z,101558.00
2018-09-28T08:39:46.917Z,101568.00
2018-09-28T08:44:51.152Z,101567.00
2018-09-28T08:49:55.222Z,101570.00
2018-09-28T08:54:59.319Z,101579.00
2018-09-28T09:00:03.173Z,101566.00
2018-09-28T09:05:07.325Z,101554.00
2018-09-28T09:10:11.318Z,101531.00
2018-09-28T09:15:15.397Z,101499.00
2018-09-28T09:20:20.087Z,101475.00
2018-09-28T09:25:24.219Z,101444.00
2018-09-28T09:30:28.290Z,101415.00
2018-09-28T09:35:32.557Z,101374.00
2018-09-28T09:40:36.673Z,101338.00
2018-09-28T09:45:40.750Z,101301.00
2018-09-28T09:50:44.854Z,101281.00
2018-09-28T09:55:48.965Z,101263.00
2018-09-28T10:00:58.346Z,101268.00
2018-09-28T10:06:02.236Z,101275.00
2018-09-28T10:11:06.594Z,101289.00
2018-09-28T10:16:10.682Z,101277.00
2018-09-28T10:21:14.818Z,101256.00
2018-09-28T10:26:18.593Z,101223.00
2018-09-28T10:31:22.472Z,101189.00
2018-09-28T10:36:26.321Z,101130.00
2018-09-28T10:41:30.406Z,101066.00
2018-09-28T10:46:34.694Z,101049.00
2018-09-28T10:51:38.516Z,101034.00
2018-09-28T10:56:42.440Z,101003.00
2018-09-28T11:01:46.273Z,100977.00
2018-09-28T11:06:50.384Z,100959.00
2018-09-28T11:11:54.486Z,100940.00
2018-09-28T11:16:58.313Z,100914.00
2018-09-28T11:22:02.148Z,100881.00
2018-09-28T11:27:05.993Z,100861.00
2018-09-28T11:32:10.134Z,100845.00
2018-09-28T11:37:14.222Z,100835.00
2018-09-28T11:42:18.314Z,100799.00
2018-09-28T11:47:22.214Z,100760.00
2018-09-28T11:52:26.304Z,100719.00
2018-09-28T11:57:30.599Z,100688.00
2018-09-28T12:02:34.662Z,100439.00
2018-09-28T12:07:39.042Z,100526.00
2018-09-28T12:12:42.878Z,100565.00
2018-09-28T12:17:46.938Z,100578.00
2018-09-28T12:22:50.786Z,100623.00
2018-09-28T12:27:54.878Z,100652.00
2018-09-28T12:32:58.969Z,100686.00
2018-09-28T12:38:03.066Z,100737.00
2018-09-28T12:43:07.477Z,100792.00
2018-09-28T12:48:11.569Z,100858.00
2018-09-28T12:53:15.658Z,100923.00
2018-09-28T12:58:19.781Z,100988.00
2018-09-28T13:03:24.546Z,101057.00
2018-09-28T13:08:28.692Z,101121.00
2018-09-28T13:13:32.500Z,101180.00
2018-09-28T13:18:37.205Z,101254.00
2018-09-28T13:23:41.274Z,101322.00
2018-09-28T13:28:45.370Z,101386.00
2018-09-28T13:33:49.457Z,101445.00
2018-09-28T13:38:54.108Z,101519.00
2018-09-28T13:43:58.152Z,101563.00
2018-09-28T13:49:02.261Z,101633.00
2018-09-28T13:54:06.417Z,101693.00
2018-09-28T13:59:10.503Z,101762.00
2018-09-28T14:04:14.765Z,101816.00
2018-09-28T14:09:18.735Z,101841.00
2018-09-28T14:14:22.637Z,101866.00
2018-09-28T14:19:26.778Z,101897.00
2018-09-28T14:24:30.712Z,101930.00
2018-09-28T14:29:34.859Z,101972.00
2018-09-28T14:34:38.744Z,102012.00
2018-09-28T14:39:42.897Z,102029.00
2018-09-28T14:44:47.089Z,102041.00
2018-09-28T14:49:50.937Z,102059.00
2018-09-28T14:54:54.940Z,102066.00
2018-09-28T14:59:58.757Z,102071.00
2018-09-28T15:05:02.880Z,102060.00
2018-09-28T15:10:07.760Z,102077.00
2018-09-28T15:15:11.801Z,102071.00
2018-09-28T15:20:15.868Z,102085.00
2018-09-28T15:25:21.786Z,102070.00
2018-09-28T15:30:26.085Z,102067.00
2018-09-28T15:35:30.334Z,102065.00
2018-09-28T15:40:34.568Z,102057.00
2018-09-28T15:45:38.888Z,102058.00
2018-09-28T15:50:42.763Z,102071.00
2018-09-28T15:55:46.852Z,102101.00
2018-09-28T16:00:50.704Z,102115.00
2018-09-28T16:05:54.538Z,102118.00
2018-09-28T16:10:58.369Z,102131.00
2018-09-28T16:16:02.571Z,102131.00
2018-09-28T16:21:06.638Z,102092.00
2018-09-28T16:26:10.473Z,102070.00
2018-09-28T16:31:14.642Z,102056.00
2018-09-28T16:36:18.720Z,102056.00
2018-09-28T16:41:22.913Z,102059.00
2018-09-28T16:46:26.816Z,102046.00
2018-09-28T16:51:43.422Z,102028.00
2018-09-28T16:56:47.570Z,102006.00
2018-09-28T17:01:52.329Z,101984.00
2018-09-28T17:06:56.165Z,101967.00
2018-09-28T17:12:00.279Z,101972.00
2018-09-28T17:17:04.271Z,101965.00
2018-09-28T17:22:08.946Z,101946.00
2018-09-28T17:27:13.026Z,101926.00
2018-09-28T17:32:16.848Z,101905.00
2018-09-28T17:37:20.690Z,101895.00
2018-09-28T17:42:24.814Z,101907.00
2018-09-28T17:47:28.660Z,101890.00
2018-09-28T17:52:32.769Z,101882.00
2018-09-28T17:57:36.604Z,101878.00
2018-09-28T18:02:40.703Z,101878.00
2018-09-28T18:07:44.822Z,101865.00
2018-09-28T18:12:48.770Z,101865.00
2018-09-28T18:17:53.007Z,101860.00
2018-09-28T18:22:57.336Z,101832.00
2018-09-28T18:28:01.148Z,101743.00
2018-09-28T18:33:05.305Z,101682.00
2018-09-28T18:38:09.425Z,101636.00
2018-09-28T18:43:13.533Z,101640.00
2018-09-28T18:48:17.394Z,101631.00
2018-09-28T18:53:21.506Z,101633.00
2018-09-28T18:58:25.446Z,101463.00
2018-09-28T19:03:29.282Z,101313.00
2018-09-28T19:08:33.377Z,101278.00
2018-09-28T19:13:37.233Z,101271.00
2018-09-28T19:18:41.212Z,101277.00
2018-09-28T19:23:45.289Z,101285.00
2018-09-28T19:28:49.133Z,101277.00
2018-09-28T19:33:53.936Z,101242.00
2018-09-28T19:38:58.729Z,101202.00
2018-09-28T19:44:02.548Z,101162.00
2018-09-28T19:49:06.557Z,101147.00
2018-09-28T19:54:10.344Z,101122.00
2018-09-28T19:59:14.176Z,101110.00
2018-09-28T20:04:18.014Z,101084.00
2018-09-28T20:09:22.202Z,101075.00
2018-09-28T20:14:26.288Z,101073.00
2018-09-28T20:19:30.378Z,100944.00
2018-09-28T20:24:34.218Z,100998.00
2018-09-28T20:29:38.354Z,101035.00
2018-09-28T20:34:42.216Z,101045.00
2018-09-28T20:39:46.314Z,101044.00
2018-09-28T20:44:50.180Z,101060.00
2018-09-28T20:49:54.037Z,101074.00
2018-09-28T20:54:57.933Z,101084.00
2018-09-28T21:00:02.112Z,101088.00
2018-09-28T21:05:06.476Z,101087.00
2018-09-28T21:10:10.332Z,101101.00
2018-09-28T21:15:14.419Z,101112.00
2018-09-28T21:20:18.325Z,101116.00
2018-09-28T21:25:22.381Z,101114.00
2018-09-28T21:30:27.519Z,101100.00
2018-09-28T21:35:31.408Z,101091.00
2018-09-28T21:40:35.225Z,101082.00
2018-09-28T21:45:39.319Z,101085.00
2018-09-28T21:50:43.393Z,101077.00
2018-09-28T21:55:47.229Z,101079.00
2018-09-28T22:00:55.684Z,101084.00
2018-09-28T22:05:59.696Z,101083.00
2018-09-28T22:11:04.061Z,101074.00
2018-09-28T22:16:08.214Z,101088.00
2018-09-28T22:21:12.077Z,101097.00
2018-09-28T22:26:16.143Z,101110.00
2018-09-28T22:31:20.341Z,101127.00
2018-09-28T22:36:24.652Z,101127.00
2018-09-28T22:41:28.781Z,101120.00
2018-09-28T22:46:32.684Z,101220.00
2018-09-28T22:51:36.625Z,101279.00
2018-09-28T22:56:40.448Z,101297.00
2018-09-28T23:01:44.516Z,101314.00
2018-09-28T23:06:48.614Z,101355.00
2018-09-28T23:11:52.977Z,101374.00
2018-09-28T23:16:57.025Z,101391.00
2018-09-28T23:22:00.864Z,101414.00
2018-09-28T23:27:04.779Z,101441.00
2018-09-28T23:32:08.966Z,101460.00
2018-09-28T23:37:13.027Z,101490.00
2018-09-28T23:42:17.246Z,101512.00
2018-09-28T23:47:21.278Z,101544.00
2018-09-28T23:52:25.117Z,101579.00
2018-09-28T23:57:28.942Z,101592.00
